createdAt,value
2023-02-15T00:01:39.084Z,101247.44
2023-02-15T00:04:10.518Z,101249.00
2023-02-15T00:06:40.198Z,101257.53
2023-02-15T00:09:12.375Z,101251.41
2023-02-15T00:11:45.039Z,101253.88
2023-02-15T00:14:21.327Z,101256.56
2023-02-15T00:16:54.267Z,101256.88
2023-02-15T00:19:24.111Z,101250.25
2023-02-15T00:21:53.834Z,101255.44
2023-02-15T00:24:23.654Z,101248.75
2023-02-15T00:26:53.418Z,101244.75
2023-02-15T00:29:23.508Z,101240.69
2023-02-15T00:31:53.631Z,101245.31
2023-02-15T00:34:28.220Z,101245.50
2023-02-15T00:36:58.283Z,101251.47
2023-02-15T00:39:28.426Z,101255.13
2023-02-15T00:41:58.066Z,101256.88
2023-02-15T00:44:27.700Z,101248.75
2023-02-15T00:46:57.375Z,101254.53
2023-02-15T00:49:27.130Z,101252.78
2023-02-15T00:51:56.865Z,101245.84
2023-02-15T00:54:26.598Z,101252.28
2023-02-15T00:56:56.336Z,101256.63
2023-02-15T00:59:25.983Z,101256.72
2023-02-15T01:01:55.641Z,101261.94
2023-02-15T01:04:25.369Z,101251.38
2023-02-15T01:06:54.999Z,101257.56
2023-02-15T01:09:24.674Z,101267.38
2023-02-15T01:11:54.448Z,101261.59
2023-02-15T01:14:24.403Z,101259.38
2023-02-15T01:16:54.100Z,101257.47
2023-02-15T01:19:23.755Z,101255.66
2023-02-15T01:21:53.393Z,101251.38
2023-02-15T01:24:23.062Z,101252.19
2023-02-15T01:26:52.751Z,101250.38
2023-02-15T01:29:22.548Z,101240.69
2023-02-15T01:31:52.545Z,101243.94
2023-02-15T01:34:22.193Z,101238.16
2023-02-15T01:36:51.845Z,101238.94
2023-02-15T01:39:21.514Z,101232.38
2023-02-15T01:41:52.200Z,101234.03
2023-02-15T01:44:49.828Z,101237.47
2023-02-15T01:47:54.393Z,101234.06
2023-02-15T01:50:43.208Z,101233.84
2023-02-15T01:53:27.152Z,101229.25
2023-02-15T01:56:26.266Z,101227.66
2023-02-15T01:58:59.725Z,101226.00
2023-02-15T02:01:29.964Z,101232.59
2023-02-15T02:04:39.977Z,101230.69
2023-02-15T02:07:11.649Z,101229.28
2023-02-15T02:09:41.578Z,101220.38
2023-02-15T02:12:11.888Z,101222.16
2023-02-15T02:14:42.918Z,101224.75
2023-02-15T02:17:40.623Z,101221.38
2023-02-15T02:20:46.385Z,101213.03
2023-02-15T02:23:34.534Z,101209.94
2023-02-15T02:26:58.413Z,101216.25
2023-02-15T02:30:27.075Z,101214.44
2023-02-15T02:33:29.896Z,101216.25
2023-02-15T02:36:21.608Z,101213.47
2023-02-15T02:39:05.926Z,101216.41
2023-02-15T02:42:09.657Z,101217.03
2023-02-15T02:44:55.344Z,101221.25
2023-02-15T02:47:40.047Z,101220.53
2023-02-15T02:50:22.893Z,101226.50
2023-02-15T02:52:57.027Z,101224.28
2023-02-15T02:55:50.158Z,101217.50
2023-02-15T02:58:43.922Z,101218.19
2023-02-15T03:01:29.405Z,101227.19
2023-02-15T03:04:11.570Z,101223.38
2023-02-15T03:06:58.813Z,101222.63
2023-02-15T03:09:45.636Z,101222.91
2023-02-15T03:12:34.190Z,101233.22
2023-02-15T03:15:06.801Z,101226.91
2023-02-15T03:17:44.059Z,101234.16
2023-02-15T03:20:32.994Z,101234.41
2023-02-15T03:23:15.136Z,101224.03
2023-02-15T03:26:02.423Z,101225.56
2023-02-15T03:28:46.641Z,101236.06
2023-02-15T03:31:19.168Z,101225.47
2023-02-15T03:34:01.274Z,101237.44
2023-02-15T03:36:52.005Z,101241.78
2023-02-15T03:39:45.974Z,101242.72
2023-02-15T03:42:33.319Z,101238.00
2023-02-15T03:45:16.823Z,101231.81
2023-02-15T03:47:52.037Z,101233.91
2023-02-15T03:50:57.652Z,101237.28
2023-02-15T03:53:28.367Z,101236.28
2023-02-15T03:55:58.098Z,101235.44
2023-02-15T03:58:46.284Z,101239.78
2023-02-15T04:01:52.045Z,101229.84
2023-02-15T04:04:28.104Z,101239.75
2023-02-15T04:06:58.027Z,101236.19
2023-02-15T04:09:45.917Z,101235.59
2023-02-15T04:12:15.629Z,101237.06
2023-02-15T04:15:04.013Z,101235.38
2023-02-15T04:17:33.742Z,101239.47
2023-02-15T04:20:21.866Z,101238.63
2023-02-15T04:23:09.673Z,101234.28
2023-02-15T04:25:39.295Z,101228.44
2023-02-15T04:28:09.215Z,101234.84
2023-02-15T04:30:38.849Z,101227.44
2023-02-15T04:33:08.403Z,101228.16
2023-02-15T04:35:38.003Z,101228.41
2023-02-15T04:38:07.685Z,101230.09
2023-02-15T04:40:37.282Z,101227.28
2023-02-15T04:43:06.861Z,101228.53
2023-02-15T04:45:36.571Z,101238.03
2023-02-15T04:48:06.237Z,101233.56
2023-02-15T04:50:35.844Z,101235.91
2023-02-15T04:53:05.449Z,101232.34
2023-02-15T04:55:35.152Z,101234.53
2023-02-15T04:58:04.820Z,101233.56
2023-02-15T05:00:34.583Z,101235.34
2023-02-15T05:03:04.581Z,101224.81
2023-02-15T05:05:34.134Z,101236.88
2023-02-15T05:08:03.827Z,101226.63
2023-02-15T05:10:33.439Z,101227.34
2023-02-15T05:13:03.022Z,101229.13
2023-02-15T05:15:32.777Z,101231.94
2023-02-15T05:18:02.658Z,101235.28
2023-02-15T05:20:32.305Z,101243.72
2023-02-15T05:23:01.953Z,101236.41
2023-02-15T05:25:49.910Z,101245.84
2023-02-15T05:28:22.540Z,101255.78
2023-02-15T05:31:05.937Z,101255.22
2023-02-15T05:33:36.265Z,101257.19
2023-02-15T05:36:08.014Z,101255.41
2023-02-15T05:38:38.931Z,101259.75
2023-02-15T05:41:11.913Z,101264.91
2023-02-15T05:43:41.785Z,101271.09
2023-02-15T05:46:12.356Z,101275.78
2023-02-15T05:48:42.073Z,101275.06
2023-02-15T05:51:15.096Z,101274.97
2023-02-15T05:53:44.860Z,101278.16
2023-02-15T05:56:14.664Z,101283.25
2023-02-15T05:58:44.524Z,101290.47
2023-02-15T06:01:18.688Z,101286.72
2023-02-15T06:03:48.436Z,101287.06
2023-02-15T06:06:18.382Z,101292.78
2023-02-15T06:08:48.059Z,101291.25
2023-02-15T06:11:17.789Z,101287.25
2023-02-15T06:13:47.519Z,101287.78
2023-02-15T06:16:17.338Z,101286.22
2023-02-15T06:18:47.092Z,101286.66
2023-02-15T06:21:16.865Z,101286.91
2023-02-15T06:23:45.828Z,101284.22
2023-02-15T06:26:15.475Z,101287.00
2023-02-15T06:28:45.180Z,101293.97
2023-02-15T06:31:14.898Z,101295.59
2023-02-15T06:33:44.614Z,101302.81
2023-02-15T06:36:14.309Z,101303.69
2023-02-15T06:38:44.798Z,101310.75
2023-02-15T06:41:14.466Z,101306.31
2023-02-15T06:43:44.233Z,101306.34
2023-02-15T06:46:13.953Z,101307.91
2023-02-15T06:48:44.683Z,101304.59
2023-02-15T06:51:15.272Z,101313.06
2023-02-15T06:53:45.041Z,101311.47
2023-02-15T06:56:14.748Z,101317.44
2023-02-15T06:58:46.941Z,101319.41
2023-02-15T07:01:17.036Z,101315.13
2023-02-15T07:03:46.824Z,101319.09
2023-02-15T07:06:16.503Z,101312.44
2023-02-15T07:08:46.193Z,101313.44
2023-02-15T07:11:34.290Z,101313.03
2023-02-15T07:14:03.816Z,101309.13
2023-02-15T07:16:31.628Z,101324.94
2023-02-15T07:19:01.259Z,101316.72
2023-02-15T07:21:29.175Z,101327.75
2023-02-15T07:23:59.959Z,101330.72
2023-02-15T07:26:29.930Z,101321.03
2023-02-15T07:28:59.559Z,101329.66
2023-02-15T07:31:29.593Z,101321.13
2023-02-15T07:33:59.155Z,101314.72
2023-02-15T07:36:28.840Z,101323.28
2023-02-15T07:38:58.428Z,101319.00
2023-02-15T07:41:27.016Z,101305.13
2023-02-15T07:43:56.628Z,101312.38
2023-02-15T07:46:26.233Z,101304.31
2023-02-15T07:48:56.867Z,101308.69
2023-02-15T07:51:27.301Z,101308.75
2023-02-15T07:53:57.120Z,101305.28
2023-02-15T07:56:26.825Z,101300.81
2023-02-15T07:58:56.911Z,101307.81
2023-02-15T08:01:39.479Z,101301.53
2023-02-15T08:04:12.063Z,101300.66
2023-02-15T08:06:41.770Z,101298.03
2023-02-15T08:09:16.166Z,101292.41
2023-02-15T08:11:44.053Z,101294.50
2023-02-15T08:14:18.737Z,101288.53
2023-02-15T08:17:00.878Z,101291.03
2023-02-15T08:19:33.693Z,101287.13
2023-02-15T08:22:08.012Z,101298.69
2023-02-15T08:24:38.999Z,101295.94
2023-02-15T08:27:12.087Z,101285.03
2023-02-15T08:29:43.366Z,101285.06
2023-02-15T08:32:14.954Z,101285.75
2023-02-15T08:34:44.679Z,101282.91
2023-02-15T08:37:14.273Z,101279.53
2023-02-15T08:39:44.562Z,101284.13
2023-02-15T08:42:14.804Z,101279.78
2023-02-15T08:44:44.310Z,101281.69
2023-02-15T08:47:14.114Z,101283.31
2023-02-15T08:49:42.821Z,101283.44
2023-02-15T08:52:12.368Z,101280.22
2023-02-15T08:54:41.882Z,101285.16
2023-02-15T08:57:11.484Z,101285.63
2023-02-15T08:59:40.951Z,101282.00
2023-02-15T09:02:12.409Z,101281.91
2023-02-15T09:04:42.007Z,101280.50
2023-02-15T09:07:11.416Z,101282.72
2023-02-15T09:09:40.892Z,101289.09
2023-02-15T09:12:10.412Z,101288.81
2023-02-15T09:14:39.878Z,101284.97
2023-02-15T09:17:09.360Z,101285.19
2023-02-15T09:19:38.840Z,101277.59
2023-02-15T09:22:08.303Z,101280.28
2023-02-15T09:24:37.087Z,101266.84
2023-02-15T09:27:06.831Z,101272.69
2023-02-15T09:29:35.636Z,101276.72
2023-02-15T09:32:05.274Z,101276.91
2023-02-15T09:34:35.169Z,101261.53
2023-02-15T09:37:07.645Z,101274.66
2023-02-15T09:39:44.094Z,101271.16
2023-02-15T09:43:09.126Z,101264.56
2023-02-15T09:46:40.359Z,101262.56
2023-02-15T09:50:15.300Z,101252.41
2023-02-15T09:53:19.589Z,101246.88
2023-02-15T09:56:46.792Z,101242.91
2023-02-15T09:59:36.565Z,101245.25
2023-02-15T10:03:12.972Z,101237.16
2023-02-15T10:06:32.434Z,101238.19
2023-02-15T10:09:31.651Z,101230.78
2023-02-15T10:12:56.003Z,101229.66
2023-02-15T10:15:54.938Z,101226.81
2023-02-15T10:19:06.432Z,101228.34
2023-02-15T10:21:47.818Z,101229.69
2023-02-15T10:24:26.156Z,101233.28
2023-02-15T10:27:16.637Z,101232.16
2023-02-15T10:29:57.381Z,101232.66
2023-02-15T10:32:30.335Z,101228.41
2023-02-15T10:35:15.341Z,101224.94
2023-02-15T10:38:26.950Z,101218.38
2023-02-15T10:41:09.717Z,101219.25
2023-02-15T10:44:44.635Z,101220.09
2023-02-15T10:47:49.759Z,101223.09
2023-02-15T10:50:57.376Z,101219.78
2023-02-15T10:54:09.201Z,101208.75
2023-02-15T10:56:54.950Z,101213.66
2023-02-15T10:59:50.360Z,101211.34
2023-02-15T11:03:18.830Z,101198.06
2023-02-15T11:06:14.616Z,101201.72
2023-02-15T11:08:52.065Z,101199.63
2023-02-15T11:11:36.183Z,101200.50
2023-02-15T11:14:19.213Z,101194.69
2023-02-15T11:16:54.282Z,101196.03
2023-02-15T11:19:33.569Z,101187.84
2023-02-15T11:22:07.621Z,101185.34
2023-02-15T11:24:47.532Z,101185.94
2023-02-15T11:27:34.304Z,101180.56
2023-02-15T11:30:16.725Z,101176.63
2023-02-15T11:32:52.614Z,101175.50
2023-02-15T11:35:38.488Z,101172.34
2023-02-15T11:38:21.687Z,101164.41
2023-02-15T11:41:25.418Z,101163.28
2023-02-15T11:44:08.038Z,101167.06
2023-02-15T11:46:38.884Z,101169.00
2023-02-15T11:49:38.923Z,101154.50
2023-02-15T11:52:15.653Z,101155.94
2023-02-15T11:54:51.559Z,101150.81
2023-02-15T11:57:39.144Z,101144.50
2023-02-15T12:00:37.290Z,101135.41
2023-02-15T12:03:24.550Z,101139.47
2023-02-15T12:06:03.821Z,101132.50
2023-02-15T12:08:43.460Z,101136.16
2023-02-15T12:11:39.498Z,101125.53
2023-02-15T12:14:16.941Z,101127.69
2023-02-15T12:16:57.033Z,101127.91
2023-02-15T12:19:39.117Z,101122.91
2023-02-15T12:22:26.334Z,101116.41
2023-02-15T12:25:01.865Z,101124.06
2023-02-15T12:27:34.605Z,101122.88
2023-02-15T12:30:36.534Z,101113.34
2023-02-15T12:33:46.623Z,101100.91
2023-02-15T12:36:29.090Z,101097.38
2023-02-15T12:39:13.598Z,101096.22
2023-02-15T12:42:01.145Z,101098.78
2023-02-15T12:44:38.256Z,101094.94
2023-02-15T12:47:21.238Z,101086.97
2023-02-15T12:50:19.148Z,101076.91
2023-02-15T12:52:52.446Z,101077.94
2023-02-15T12:55:32.273Z,101080.22
2023-02-15T12:58:26.396Z,101076.72
2023-02-15T13:01:22.396Z,101077.13
2023-02-15T13:04:05.861Z,101074.78
2023-02-15T13:06:37.652Z,101072.59
2023-02-15T13:09:21.178Z,101075.16
2023-02-15T13:11:51.214Z,101065.34
2023-02-15T13:14:32.349Z,101065.03
2023-02-15T13:17:07.761Z,101066.09
2023-02-15T13:19:51.381Z,101064.31
2023-02-15T13:22:43.293Z,101054.84
2023-02-15T13:25:24.863Z,101051.72
2023-02-15T13:28:03.043Z,101046.34
2023-02-15T13:30:38.316Z,101053.69
2023-02-15T13:33:31.900Z,101048.63
2023-02-15T13:37:07.242Z,101044.94
2023-02-15T13:39:47.403Z,101042.00
2023-02-15T13:42:31.809Z,101042.03
2023-02-15T13:46:02.979Z,101040.00
2023-02-15T13:48:48.796Z,101033.84
2023-02-15T13:51:41.828Z,101036.00
2023-02-15T13:54:59.197Z,101045.66
2023-02-15T13:57:52.580Z,101041.56
2023-02-15T14:00:56.595Z,101036.75
2023-02-15T14:03:57.872Z,101032.78
2023-02-15T14:06:40.319Z,101027.34
2023-02-15T14:10:04.539Z,101042.06
2023-02-15T14:13:18.674Z,101033.03
2023-02-15T14:16:38.708Z,101031.03
2023-02-15T14:19:50.859Z,101038.53
2023-02-15T14:22:44.414Z,101040.88
2023-02-15T14:26:24.336Z,101038.13
2023-02-15T14:29:24.398Z,101043.63
2023-02-15T14:32:46.359Z,101045.91
2023-02-15T14:35:29.997Z,101034.47
2023-02-15T14:38:23.882Z,101037.97
2023-02-15T14:41:08.742Z,101032.88
2023-02-15T14:44:34.373Z,101025.78
2023-02-15T14:47:23.733Z,101030.56
2023-02-15T14:49:53.215Z,101033.63
2023-02-15T14:52:22.795Z,101034.53
2023-02-15T14:54:56.256Z,101037.59
2023-02-15T14:57:28.792Z,101030.47
2023-02-15T15:00:08.266Z,101021.75
2023-02-15T15:02:51.142Z,101027.56
2023-02-15T15:05:35.170Z,101029.41
2023-02-15T15:08:06.967Z,101028.91
2023-02-15T15:10:48.333Z,101023.69
2023-02-15T15:13:32.821Z,101021.28
2023-02-15T15:16:39.481Z,101015.59
2023-02-15T15:19:53.715Z,101019.41
2023-02-15T15:22:30.983Z,101019.69
2023-02-15T15:25:13.194Z,101020.00
2023-02-15T15:27:47.025Z,101019.88
2023-02-15T15:30:19.328Z,101009.53
2023-02-15T15:34:24.458Z,101007.72
2023-02-15T15:37:29.537Z,101006.91
2023-02-15T15:40:28.757Z,101007.00
2023-02-15T15:43:37.501Z,101001.19
2023-02-15T15:46:49.611Z,100998.88
2023-02-15T15:49:23.227Z,100996.44
2023-02-15T15:51:53.091Z,100999.19
2023-02-15T15:54:25.854Z,100985.91
2023-02-15T15:57:03.585Z,100992.34
2023-02-15T15:59:36.230Z,100995.31
2023-02-15T16:02:11.302Z,100996.16
2023-02-15T16:04:40.712Z,100996.50
2023-02-15T16:07:18.783Z,101002.72
2023-02-15T16:10:08.204Z,100996.56
2023-02-15T16:12:40.941Z,101004.84
2023-02-15T16:15:45.781Z,100999.59
2023-02-15T16:18:25.294Z,101007.91
2023-02-15T16:21:01.949Z,101000.00
2023-02-15T16:23:37.523Z,101000.28
2023-02-15T16:26:28.298Z,101007.41
2023-02-15T16:28:57.918Z,101002.44
2023-02-15T16:31:27.668Z,101001.59
2023-02-15T16:33:57.403Z,100998.78
2023-02-15T16:36:29.922Z,100990.06
2023-02-15T16:39:00.354Z,100995.13
2023-02-15T16:41:31.886Z,100992.16
2023-02-15T16:44:17.822Z,100992.38
2023-02-15T16:46:55.028Z,100988.34
2023-02-15T16:49:29.914Z,100989.97
2023-02-15T16:52:09.664Z,100999.63
2023-02-15T16:54:44.654Z,100990.19
2023-02-15T16:57:30.911Z,100994.03
2023-02-15T17:00:18.487Z,100988.66
2023-02-15T17:03:25.337Z,100995.84
2023-02-15T17:06:00.585Z,100989.84
2023-02-15T17:08:38.155Z,100995.91
2023-02-15T17:11:42.696Z,101004.84
2023-02-15T17:14:19.096Z,100997.00
2023-02-15T17:17:13.813Z,101002.50
2023-02-15T17:19:55.328Z,100998.34
2023-02-15T17:22:31.952Z,101008.81
2023-02-15T17:25:06.591Z,100999.16
2023-02-15T17:27:39.679Z,101001.81
2023-02-15T17:30:33.778Z,100995.81
2023-02-15T17:33:06.199Z,101002.00
2023-02-15T17:35:35.344Z,100996.72
2023-02-15T17:38:21.354Z,100995.09
2023-02-15T17:40:51.006Z,100996.94
2023-02-15T17:43:21.830Z,100992.63
2023-02-15T17:45:53.592Z,100990.03
2023-02-15T17:48:35.600Z,100991.94
2023-02-15T17:51:12.623Z,101002.56
2023-02-15T17:54:07.083Z,101002.78
2023-02-15T17:56:39.820Z,100997.56
2023-02-15T17:59:12.625Z,101002.97
2023-02-15T18:02:09.434Z,100994.13
2023-02-15T18:04:57.233Z,100991.47
2023-02-15T18:07:46.437Z,100993.59
2023-02-15T18:10:38.965Z,100990.94
2023-02-15T18:13:08.869Z,100982.16
2023-02-15T18:15:37.546Z,100991.03
2023-02-15T18:18:13.285Z,100985.69
2023-02-15T18:20:45.996Z,100984.00
2023-02-15T18:23:20.365Z,100986.06
2023-02-15T18:25:51.953Z,100989.91
2023-02-15T18:28:23.826Z,100981.91
2023-02-15T18:30:54.583Z,100987.16
2023-02-15T18:33:41.491Z,100987.22
2023-02-15T18:36:32.924Z,100981.28
2023-02-15T18:39:08.922Z,100975.88
2023-02-15T18:41:40.200Z,100989.06
2023-02-15T18:44:13.349Z,100982.13
2023-02-15T18:46:44.365Z,100991.16
2023-02-15T18:49:15.183Z,100984.25
2023-02-15T18:51:46.015Z,100981.66
2023-02-15T18:54:26.128Z,100984.31
2023-02-15T18:57:02.860Z,100984.41
2023-02-15T18:59:36.039Z,100981.72
2023-02-15T19:02:19.919Z,100983.44
2023-02-15T19:04:50.903Z,100986.94
2023-02-15T19:07:26.924Z,100989.59
2023-02-15T19:09:59.964Z,100993.13
2023-02-15T19:12:29.835Z,100984.38
2023-02-15T19:14:59.861Z,100993.16
2023-02-15T19:17:29.542Z,100981.72
2023-02-15T19:20:00.040Z,100988.78
2023-02-15T19:22:31.480Z,100986.09
2023-02-15T19:25:08.113Z,100984.38
2023-02-15T19:27:39.024Z,100987.03
2023-02-15T19:30:30.120Z,100979.13
2023-02-15T19:33:02.281Z,100982.66
2023-02-15T19:35:35.919Z,100980.00
2023-02-15T19:38:16.196Z,100979.09
2023-02-15T19:40:48.670Z,100986.13
2023-02-15T19:43:27.867Z,100982.63
2023-02-15T19:45:57.478Z,100980.00
2023-02-15T19:48:27.306Z,100973.81
2023-02-15T19:50:57.257Z,100979.09
2023-02-15T19:53:29.670Z,100968.59
2023-02-15T19:56:01.050Z,100972.09
2023-02-15T19:58:31.480Z,100966.88
2023-02-15T20:01:03.302Z,100966.84
2023-02-15T20:03:34.274Z,100966.81
2023-02-15T20:06:03.067Z,100972.09
2023-02-15T20:08:33.925Z,100966.78
2023-02-15T20:11:09.680Z,100973.84
2023-02-15T20:13:37.522Z,100972.09
2023-02-15T20:16:09.894Z,100967.69
2023-02-15T20:18:44.686Z,100967.72
2023-02-15T20:21:17.267Z,100971.22
2023-02-15T20:23:48.060Z,100970.34
2023-02-15T20:26:19.893Z,100963.28
2023-02-15T20:28:50.520Z,100968.56
2023-02-15T20:31:21.989Z,100959.72
2023-02-15T20:33:53.177Z,100964.09
2023-02-15T20:36:24.825Z,100954.44
2023-02-15T20:38:57.397Z,100953.63
2023-02-15T20:41:37.649Z,100951.84
2023-02-15T20:44:29.254Z,100963.28
2023-02-15T20:47:01.647Z,100960.66
2023-02-15T20:49:32.221Z,100965.91
2023-02-15T20:52:03.906Z,100958.88
2023-02-15T20:54:36.811Z,100963.25
2023-02-15T20:57:12.058Z,100958.84
2023-02-15T20:59:42.608Z,100964.91
2023-02-15T21:02:23.990Z,100955.22
2023-02-15T21:04:55.590Z,100960.38
2023-02-15T21:07:26.218Z,100957.81
2023-02-15T21:09:56.774Z,100956.06
2023-02-15T21:12:27.477Z,100960.41
2023-02-15T21:14:58.343Z,100961.38
2023-02-15T21:17:28.874Z,100964.84
2023-02-15T21:19:58.584Z,100962.06
2023-02-15T21:22:29.244Z,100960.53
2023-02-15T21:24:58.973Z,100963.78
2023-02-15T21:27:30.084Z,100954.03
2023-02-15T21:30:01.180Z,100958.41
2023-02-15T21:32:31.848Z,100955.78
2023-02-15T21:35:02.478Z,100951.59
2023-02-15T21:37:36.438Z,100954.09
2023-02-15T21:40:28.401Z,100951.63
2023-02-15T21:43:18.353Z,100947.97
2023-02-15T21:46:06.957Z,100963.91
2023-02-15T21:48:37.500Z,100962.03
2023-02-15T21:51:25.758Z,100961.81
2023-02-15T21:53:56.301Z,100964.41
2023-02-15T21:56:24.518Z,100959.09
2023-02-15T21:58:55.056Z,100959.16
2023-02-15T22:01:28.128Z,100954.91
2023-02-15T22:03:59.902Z,100955.66
2023-02-15T22:06:30.415Z,100954.72
2023-02-15T22:09:00.934Z,100968.81
2023-02-15T22:11:32.157Z,100962.63
2023-02-15T22:14:02.672Z,100957.28
2023-02-15T22:16:33.392Z,100952.09
2023-02-15T22:19:01.261Z,100954.00
2023-02-15T22:21:31.887Z,100951.50
2023-02-15T22:24:02.516Z,100956.84
2023-02-15T22:26:32.354Z,100953.25
2023-02-15T22:29:02.930Z,100955.63
2023-02-15T22:31:33.563Z,100950.25
2023-02-15T22:34:04.146Z,100953.06
2023-02-15T22:36:34.954Z,100954.53
2023-02-15T22:39:04.774Z,100954.56
2023-02-15T22:41:35.343Z,100961.69
2023-02-15T22:44:05.159Z,100959.94
2023-02-15T22:46:35.977Z,100964.34
2023-02-15T22:49:06.572Z,100966.13
2023-02-15T22:51:37.032Z,100970.63
2023-02-15T22:54:08.538Z,100972.34
2023-02-15T22:56:52.391Z,100966.25
2023-02-15T22:59:34.225Z,100964.44
2023-02-15T23:02:06.569Z,100963.19
2023-02-15T23:04:37.039Z,100965.88
2023-02-15T23:07:21.617Z,100960.56
2023-02-15T23:09:52.071Z,100954.50
2023-02-15T23:12:49.827Z,100964.22
2023-02-15T23:15:20.378Z,100951.91
2023-02-15T23:17:50.903Z,100965.09
2023-02-15T23:20:20.494Z,100957.16
2023-02-15T23:22:50.049Z,100952.69
2023-02-15T23:25:24.534Z,100950.69
2023-02-15T23:27:57.140Z,100955.03
2023-02-15T23:30:28.023Z,100955.88
2023-02-15T23:32:58.916Z,100955.97
2023-02-15T23:35:28.635Z,100951.56
2023-02-15T23:37:59.171Z,100948.78
2023-02-15T23:40:47.555Z,100947.84
2023-02-15T23:43:22.838Z,100952.22
2023-02-15T23:45:52.540Z,100936.44
2023-02-15T23:48:39.410Z,100937.16
2023-02-15T23:51:11.542Z,100939.25
2023-02-15T23:53:41.235Z,100939.88
2023-02-15T23:56:15.505Z,100940.00
2023-02-15T23:58:46.814Z,100938.19
